Time;durP1;ratioP1;P1;durP2;ratioP2;P2;SDS_P1;SDS_P2;PMS_P1;PMS_P2;Temp;Humidity;BMP_temperature;BMP_pressure;BME280_temperature;BME280_humidity;BME280_pressure;Samples;Min_cycle;Max_cycle;Signal;HPM_P1;HPM_P2
2021/01/07 00:01:23;;;;;;;3.13;0.70;;;2.10;99.90;;;;;;5077579;28;20033;-74
2021/01/07 00:03:49;;;;;;;3.38;0.95;;;2.00;99.90;;;;;;5064384;28;20033;-74
2021/01/07 00:06:15;;;;;;;4.80;0.70;;;2.00;99.90;;;;;;5056895;28;20017;-74
2021/01/07 00:08:41;;;;;;;4.25;1.00;;;2.00;99.90;;;;;;5057181;28;20478;-74
2021/01/07 00:11:09;;;;;;;5.78;0.98;;;2.00;99.90;;;;;;5065825;28;20027;-74
2021/01/07 00:13:35;;;;;;;3.35;0.70;;;2.00;99.90;;;;;;5059132;28;20032;-74
2021/01/07 00:16:02;;;;;;;3.38;0.80;;;2.00;99.90;;;;;;5076997;28;20108;-74
2021/01/07 00:18:27;;;;;;;5.05;1.33;;;2.00;99.90;;;;;;5059053;28;20602;-74
2021/01/07 00:20:53;;;;;;;3.33;0.90;;;2.10;99.90;;;;;;5058315;28;20055;-74
2021/01/07 00:23:57;;;;;;;2.08;0.60;;;2.10;99.90;;;;;;5076630;28;20044;-74
2021/01/07 00:26:22;;;;;;;4.10;0.45;;;2.00;99.90;;;;;;5058804;28;20028;-74
2021/01/07 00:28:48;;;;;;;4.88;1.05;;;2.10;99.90;;;;;;5058855;28;20038;-73
2021/01/07 00:31:14;;;;;;;2.55;0.55;;;2.00;99.90;;;;;;5068628;28;20021;-73
2021/01/07 00:33:39;;;;;;;3.50;1.40;;;2.10;99.90;;;;;;5039657;28;20028;-74
2021/01/07 00:36:05;;;;;;;4.65;0.70;;;2.10;99.90;;;;;;5056517;28;20021;-73
2021/01/07 00:38:31;;;;;;;3.85;0.93;;;2.10;99.90;;;;;;5060944;28;20036;-73
2021/01/07 00:40:56;;;;;;;2.97;0.95;;;2.10;99.90;;;;;;5076654;28;20025;-73
2021/01/07 00:43:22;;;;;;;4.05;0.65;;;2.10;99.90;;;;;;5058563;28;20043;-72
2021/01/07 00:45:47;;;;;;;3.13;0.73;;;2.10;99.90;;;;;;5076199;28;20461;-72
2021/01/07 00:48:13;;;;;;;2.50;0.73;;;2.40;99.90;;;;;;5075599;28;20021;-73
2021/01/07 00:50:38;;;;;;;6.63;0.77;;;2.10;99.90;;;;;;5056709;28;20017;-73
2021/01/07 00:53:04;;;;;;;1.35;0.47;;;2.10;99.90;;;;;;5056842;28;20013;-73
2021/01/07 00:55:29;;;;;;;1.20;0.30;;;2.20;99.90;;;;;;5056575;28;20025;-73
2021/01/07 00:57:56;;;;;;;3.80;1.00;;;2.20;99.90;;;;;;5056794;28;20435;-73
2021/01/07 01:00:23;;;;;;;5.68;0.40;;;2.20;99.90;;;;;;5056849;28;20034;-73
2021/01/07 01:02:49;;;;;;;0.68;0.20;;;2.20;99.90;;;;;;5056558;28;20021;-73
2021/01/07 01:05:15;;;;;;;1.45;0.28;;;2.20;99.90;;;;;;5055143;28;20039;-73
2021/01/07 01:07:41;;;;;;;2.70;0.25;;;2.20;99.90;;;;;;5038211;28;20021;-73
2021/01/07 01:10:10;;;;;;;5.35;0.57;;;2.20;99.90;;;;;;5038068;28;20022;-73
2021/01/07 01:12:37;;;;;;;1.15;0.20;;;2.20;99.90;;;;;;5056049;28;20021;-73
2021/01/07 01:15:06;;;;;;;3.58;0.40;;;2.20;99.90;;;;;;5056380;28;20074;-73
2021/01/07 01:17:36;;;;;;;0.70;0.32;;;2.20;99.90;;;;;;5021375;28;20486;-73
2021/01/07 01:20:06;;;;;;;1.98;0.30;;;2.20;99.90;;;;;;5055817;28;20029;-73
2021/01/07 01:22:33;;;;;;;0.55;0.10;;;2.20;99.90;;;;;;5038261;28;20040;-73
2021/01/07 01:25:00;;;;;;;1.92;0.13;;;2.20;99.90;;;;;;5038257;28;20547;-73
2021/01/07 01:27:28;;;;;;;1.95;0.38;;;2.10;99.90;;;;;;5055895;28;20496;-73
2021/01/07 01:29:54;;;;;;;5.88;1.45;;;2.10;99.90;;;;;;5037389;28;20021;-73
2021/01/07 01:32:20;;;;;;;2.13;0.40;;;2.10;99.90;;;;;;5055758;28;20072;-73
2021/01/07 01:34:46;;;;;;;1.40;0.20;;;2.10;99.90;;;;;;5038030;28;20021;-73
2021/01/07 01:37:11;;;;;;;2.88;0.20;;;2.10;99.90;;;;;;5037908;28;20116;-73
2021/01/07 01:39:37;;;;;;;1.48;0.28;;;2.10;99.90;;;;;;5055612;28;20393;-73
2021/01/07 01:42:03;;;;;;;2.85;0.30;;;2.10;99.90;;;;;;5055617;28;20033;-74
2021/01/07 01:44:28;;;;;;;2.30;0.82;;;2.10;99.90;;;;;;5055501;28;20359;-74
2021/01/07 01:46:54;;;;;;;1.23;0.22;;;2.00;99.90;;;;;;5055179;28;20053;-74
2021/01/07 01:49:21;;;;;;;3.95;0.15;;;2.00;99.90;;;;;;5055454;28;20022;-74
2021/01/07 01:51:48;;;;;;;2.08;0.30;;;2.00;99.90;;;;;;5055565;28;20017;-74
2021/01/07 01:54:14;;;;;;;2.47;0.20;;;2.00;99.90;;;;;;5054954;28;20021;-74
2021/01/07 01:56:40;;;;;;;3.85;0.30;;;2.00;99.90;;;;;;5037133;28;20066;-74
2021/01/07 01:59:05;;;;;;;2.03;0.30;;;2.00;99.90;;;;;;5055071;28;20096;-74
2021/01/07 02:01:31;;;;;;;1.55;0.30;;;1.90;99.90;;;;;;5037251;28;20456;-74
2021/01/07 02:03:57;;;;;;;14.23;1.80;;;1.90;99.90;;;;;;5054903;28;20078;-74
2021/01/07 02:06:26;;;;;;;1.02;0.20;;;1.90;99.90;;;;;;5064172;28;20032;-73
2021/01/07 02:08:52;;;;;;;1.63;0.40;;;1.90;99.90;;;;;;5056923;28;20113;-73
2021/01/07 02:11:18;;;;;;;2.65;0.38;;;1.90;99.90;;;;;;5074891;28;20519;-73
2021/01/07 02:13:45;;;;;;;1.00;0.10;;;1.90;99.90;;;;;;5057217;28;20024;-73
2021/01/07 02:16:11;;;;;;;2.58;0.30;;;2.00;99.90;;;;;;5049136;28;20021;-73
2021/01/07 02:18:37;;;;;;;2.80;0.38;;;2.00;99.90;;;;;;5037652;28;20120;-73
2021/01/07 02:21:03;;;;;;;2.08;0.32;;;2.00;99.90;;;;;;5055108;28;20500;-73
2021/01/07 02:23:29;;;;;;;1.13;0.20;;;2.00;99.90;;;;;;5037152;28;20414;-73
2021/01/07 02:25:56;;;;;;;2.80;0.47;;;2.00;99.90;;;;;;5054620;28;20100;-73
2021/01/07 02:28:23;;;;;;;2.60;0.35;;;2.00;99.90;;;;;;5036851;28;20120;-73
2021/01/07 02:30:48;;;;;;;1.42;0.20;;;2.00;99.90;;;;;;5054424;28;20017;-73
2021/01/07 02:33:14;;;;;;;1.50;0.20;;;2.00;99.90;;;;;;5054727;28;20029;-73
2021/01/07 02:35:40;;;;;;;2.10;0.20;;;2.00;99.90;;;;;;5036679;28;20388;-73
2021/01/07 02:38:06;;;;;;;2.22;0.28;;;2.00;99.90;;;;;;5036783;28;20044;-73
2021/01/07 02:40:33;;;;;;;3.92;0.50;;;2.00;99.90;;;;;;5036215;28;20025;-73
2021/01/07 02:43:02;;;;;;;0.93;0.10;;;2.40;99.90;;;;;;5036495;28;20555;-73
2021/01/07 02:45:28;;;;;;;3.90;0.55;;;2.10;99.90;;;;;;5054251;28;20029;-73
2021/01/07 02:47:54;;;;;;;0.40;0.20;;;2.10;99.90;;;;;;5037036;28;20074;-73
2021/01/07 02:50:19;;;;;;;0.38;0.10;;;2.10;99.90;;;;;;5054402;28;20027;-73
2021/01/07 02:52:45;;;;;;;2.28;0.55;;;2.10;99.90;;;;;;5038703;28;20036;-73
2021/01/07 02:55:11;;;;;;;0.55;0.10;;;2.10;99.90;;;;;;5036398;28;20087;-73
2021/01/07 02:57:36;;;;;;;0.73;0.40;;;2.10;99.90;;;;;;5054334;28;20013;-73
2021/01/07 03:00:03;;;;;;;0.50;0.20;;;2.10;99.90;;;;;;5054468;28;20057;-73
2021/01/07 03:02:29;;;;;;;3.40;0.10;;;2.00;99.90;;;;;;5051930;28;20039;-73
2021/01/07 03:04:54;;;;;;;0.98;0.10;;;2.00;99.90;;;;;;5056118;28;20480;-73
2021/01/07 03:07:20;;;;;;;1.17;0.30;;;2.00;99.90;;;;;;5055862;28;20055;-73
2021/01/07 03:09:47;;;;;;;1.38;0.35;;;2.00;99.90;;;;;;5074102;28;20481;-73
2021/01/07 03:12:17;;;;;;;1.75;0.10;;;2.00;99.90;;;;;;5042506;28;20496;-73
2021/01/07 03:14:44;;;;;;;3.80;0.10;;;2.00;99.90;;;;;;5054443;28;20044;-74
2021/01/07 03:17:09;;;;;;;1.77;0.10;;;2.00;99.90;;;;;;5053445;28;20028;-74
2021/01/07 03:19:35;;;;;;;0.82;0.05;;;2.00;99.90;;;;;;5040361;28;20024;-74
2021/01/07 03:22:02;;;;;;;0.50;0.00;;;1.90;99.90;;;;;;5073948;28;20020;-74
2021/01/07 03:24:31;;;;;;;1.55;0.00;;;2.00;99.90;;;;;;5074127;28;20025;-73
2021/01/07 03:26:57;;;;;;;;;;;2.00;99.90;;;;;;5074350;28;20020;-74
2021/01/07 03:29:23;;;;;;;1.60;0.22;;;2.00;99.90;;;;;;5074529;28;19935;-74
2021/01/07 03:31:49;;;;;;;1.08;0.00;;;2.00;99.90;;;;;;5039852;28;20025;-74
2021/01/07 03:34:15;;;;;;;1.67;0.00;;;2.00;99.90;;;;;;5057706;28;20025;-74
2021/01/07 03:36:40;;;;;;;0.38;0.20;;;2.00;99.90;;;;;;5057480;28;20040;-74
2021/01/07 03:39:06;;;;;;;0.52;0.00;;;1.90;99.90;;;;;;5040123;28;20017;-74
2021/01/07 03:41:32;;;;;;;0.82;0.35;;;1.90;99.90;;;;;;5077346;28;20025;-73
2021/01/07 03:43:57;;;;;;;0.43;0.00;;;1.90;99.90;;;;;;5059690;28;20024;-73
2021/01/07 03:46:23;;;;;;;1.30;0.00;;;1.90;99.90;;;;;;5077866;28;20502;-74
2021/01/07 03:48:48;;;;;;;2.30;0.00;;;1.90;99.90;;;;;;5078166;28;20032;-74
2021/01/07 03:51:14;;;;;;;1.17;0.00;;;1.90;99.90;;;;;;5059384;28;20384;-74
2021/01/07 03:53:39;;;;;;;1.80;0.10;;;1.90;99.90;;;;;;5057521;28;20047;-74
2021/01/07 03:56:05;;;;;;;0.65;0.10;;;1.90;99.90;;;;;;5057305;28;20021;-73
2021/01/07 03:58:31;;;;;;;0.60;0.00;;;1.90;99.90;;;;;;5065794;28;20368;-74
2021/01/07 04:00:56;;;;;;;0.98;0.25;;;1.90;99.90;;;;;;5077238;28;20027;-74
2021/01/07 04:03:22;;;;;;;0.45;0.10;;;1.90;99.90;;;;;;5059699;28;20150;-74
2021/01/07 04:05:47;;;;;;;2.38;0.30;;;1.90;99.90;;;;;;5077631;28;20082;-74
2021/01/07 04:08:13;;;;;;;2.92;0.10;;;1.90;99.90;;;;;;5071475;28;20025;-74
2021/01/07 04:10:38;;;;;;;4.15;0.15;;;1.90;99.90;;;;;;5043689;28;20492;-74
2021/01/07 04:13:04;;;;;;;0.63;0.10;;;1.90;99.90;;;;;;5059267;28;20546;-73
2021/01/07 04:15:30;;;;;;;0.30;0.00;;;1.90;99.90;;;;;;5077177;28;20021;-73
2021/01/07 04:17:55;;;;;;;0.52;0.00;;;1.90;99.90;;;;;;5077189;28;20025;-74
2021/01/07 04:20:21;;;;;;;2.92;0.10;;;1.90;99.90;;;;;;5057976;28;20024;-74
2021/01/07 04:22:46;;;;;;;0.93;0.10;;;2.00;99.90;;;;;;5039422;28;20469;-74
2021/01/07 04:25:12;;;;;;;1.02;0.13;;;1.90;99.90;;;;;;5057135;28;20032;-74
2021/01/07 04:27:37;;;;;;;5.47;0.30;;;1.90;99.90;;;;;;5056752;28;20025;-74
2021/01/07 04:30:05;;;;;;;2.50;0.13;;;1.90;99.90;;;;;;5039028;28;20024;-73
2021/01/07 04:32:30;;;;;;;0.75;0.10;;;1.90;99.90;;;;;;5039198;28;20032;-73
2021/01/07 04:34:56;;;;;;;1.05;0.10;;;1.90;99.90;;;;;;5057077;28;20497;-73
2021/01/07 04:37:21;;;;;;;0.73;0.15;;;1.90;99.90;;;;;;5049528;28;20039;-74
2021/01/07 04:39:47;;;;;;;0.68;0.00;;;1.90;99.90;;;;;;5076335;28;20033;-74
2021/01/07 04:42:13;;;;;;;1.27;0.10;;;1.90;99.90;;;;;;5076789;28;20073;-74
2021/01/07 04:44:40;;;;;;;1.15;0.08;;;1.90;99.90;;;;;;5058423;28;20054;-74
2021/01/07 04:47:06;;;;;;;2.58;0.00;;;1.90;99.90;;;;;;5068250;28;20481;-73
2021/01/07 04:49:32;;;;;;;0.47;0.00;;;1.90;99.90;;;;;;5038755;28;20021;-74
2021/01/07 04:51:57;;;;;;;1.17;0.20;;;2.00;99.90;;;;;;5056784;28;20056;-73
2021/01/07 04:54:23;;;;;;;0.75;0.25;;;2.00;99.90;;;;;;5056725;28;20043;-74
2021/01/07 04:56:48;;;;;;;1.67;0.10;;;2.10;99.90;;;;;;5043445;28;20082;-74
2021/01/07 04:59:14;;;;;;;0.85;0.00;;;2.10;99.90;;;;;;5076640;28;20028;-73
2021/01/07 05:01:43;;;;;;;0.73;0.00;;;2.20;99.90;;;;;;5076231;28;20017;-73
2021/01/07 05:04:14;;;;;;;1.50;0.00;;;2.20;99.90;;;;;;5076323;28;20369;-73
2021/01/07 05:06:39;;;;;;;0.35;0.17;;;2.20;99.90;;;;;;5072243;28;20096;-74
2021/01/07 05:09:06;;;;;;;0.30;0.10;;;2.20;99.90;;;;;;5056605;28;20025;-73
2021/01/07 05:11:33;;;;;;;0.30;0.00;;;2.20;99.90;;;;;;5056083;28;20041;-73
2021/01/07 05:14:06;;;;;;;1.05;0.00;;;2.20;99.90;;;;;;5056422;28;20025;-73
2021/01/07 05:16:32;;;;;;;0.30;0.00;;;2.20;99.90;;;;;;5058314;28;20386;-74
2021/01/07 05:19:01;;;;;;;2.50;0.90;;;2.20;99.90;;;;;;5058022;28;20086;-73
2021/01/07 05:21:26;;;;;;;1.75;0.00;;;2.30;99.90;;;;;;5076146;28;20028;-74
2021/01/07 05:23:53;;;;;;;2.10;0.10;;;2.20;99.90;;;;;;5058600;28;20111;-73
2021/01/07 05:26:20;;;;;;;7.22;0.38;;;2.20;99.90;;;;;;5075521;28;20381;-74
2021/01/07 05:28:51;;;;;;;1.85;0.10;;;2.30;99.90;;;;;;5038128;28;20017;-73
2021/01/07 05:31:20;;;;;;;0.28;0.08;;;2.30;99.90;;;;;;5038023;28;20108;-74
2021/01/07 05:33:46;;;;;;;1.65;0.13;;;2.30;99.90;;;;;;5055850;28;20021;-74
2021/01/07 05:36:26;;;;;;;3.42;0.00;;;2.30;99.90;;;;;;5037600;28;20040;-74
2021/01/07 05:38:54;;;;;;;0.55;0.00;;;2.30;99.90;;;;;;5036278;28;20493;-74
2021/01/07 05:41:21;;;;;;;1.33;0.10;;;2.40;99.90;;;;;;5035788;28;20075;-74
2021/01/07 05:44:04;;;;;;;1.20;0.43;;;2.40;99.90;;;;;;5035957;28;20022;-73
2021/01/07 05:46:34;;;;;;;1.00;0.10;;;2.40;99.90;;;;;;5038802;28;20021;-74
2021/01/07 05:49:00;;;;;;;0.52;0.00;;;2.40;99.90;;;;;;5075393;28;20025;-74
2021/01/07 05:51:30;;;;;;;2.45;0.10;;;2.40;99.90;;;;;;5074965;28;20154;-74
2021/01/07 05:53:58;;;;;;;0.10;0.00;;;2.40;99.90;;;;;;5057056;28;20032;-74
2021/01/07 05:56:24;;;;;;;3.75;0.00;;;2.40;99.90;;;;;;5075114;28;20095;-74
2021/01/07 05:58:52;;;;;;;1.38;0.03;;;2.40;99.90;;;;;;5036974;28;20036;-74
2021/01/07 06:01:19;;;;;;;0.88;0.20;;;2.50;99.90;;;;;;5055250;28;20112;-74
2021/01/07 06:03:52;;;;;;;0.20;0.00;;;2.50;99.90;;;;;;5054858;28;20036;-74
2021/01/07 06:06:19;;;;;;;0.85;0.17;;;2.40;99.90;;;;;;5036668;28;20025;-73
2021/01/07 06:08:53;;;;;;;0.80;0.00;;;2.50;99.90;;;;;;5054588;28;20048;-74
2021/01/07 06:11:22;;;;;;;1.73;0.10;;;2.50;99.90;;;;;;5055139;28;20377;-74
2021/01/07 06:13:49;;;;;;;4.03;0.55;;;2.40;99.90;;;;;;5036690;28;20023;-74
2021/01/07 06:16:20;;;;;;;3.15;0.15;;;2.50;99.90;;;;;;5054563;28;20370;-74
2021/01/07 06:18:46;;;;;;;1.17;0.10;;;2.50;99.90;;;;;;5036519;28;20512;-74
2021/01/07 06:21:13;;;;;;;3.78;0.22;;;2.50;99.90;;;;;;5036465;28;20025;-74
2021/01/07 06:23:45;;;;;;;2.97;0.30;;;2.50;99.90;;;;;;5074007;28;20060;-73
2021/01/07 06:26:25;;;;;;;2.85;0.20;;;2.40;99.90;;;;;;5074776;28;20153;-73
2021/01/07 06:28:56;;;;;;;1.55;0.35;;;2.50;99.90;;;;;;5074165;28;20047;-73
2021/01/07 06:31:34;;;;;;;1.85;0.40;;;2.50;99.90;;;;;;5055084;28;20013;-74
2021/01/07 06:34:00;;;;;;;3.42;0.30;;;2.50;99.90;;;;;;5034441;28;20020;-73
2021/01/07 06:36:41;;;;;;;1.38;0.10;;;2.50;99.90;;;;;;5029423;22;20018;-73
2021/01/07 06:39:08;;;;;;;1.98;0.10;;;2.60;99.90;;;;;;5076104;28;20023;-74
2021/01/07 06:41:35;;;;;;;1.10;0.10;;;2.60;99.90;;;;;;5073973;28;20077;-74
2021/01/07 06:44:05;;;;;;;1.27;0.00;;;2.60;99.90;;;;;;5056001;28;20020;-75
2021/01/07 06:46:43;;;;;;;2.53;0.35;;;2.60;99.90;;;;;;5073467;28;20028;-74
2021/01/07 06:49:26;;;;;;;1.95;0.10;;;2.60;99.90;;;;;;5074070;28;20027;-75
2021/01/07 06:52:03;;;;;;;0.95;0.00;;;2.60;99.90;;;;;;5055873;28;20021;-74
2021/01/07 06:54:39;;;;;;;0.32;0.20;;;2.60;99.90;;;;;;5073259;28;20031;-73
2021/01/07 06:57:10;;;;;;;0.68;0.05;;;2.60;99.90;;;;;;5055412;28;20047;-74
2021/01/07 06:59:36;;;;;;;1.17;0.10;;;2.60;99.90;;;;;;5055653;28;20016;-73
2021/01/07 07:02:04;;;;;;;1.05;0.00;;;2.60;99.90;;;;;;5055735;28;20025;-73
2021/01/07 07:04:31;;;;;;;2.47;0.05;;;2.60;99.90;;;;;;5055611;28;20046;-73
2021/01/07 07:06:58;;;;;;;1.63;0.10;;;2.70;99.90;;;;;;5072341;28;20100;-73
2021/01/07 07:09:26;;;;;;;0.90;0.20;;;2.60;99.90;;;;;;5072892;28;20029;-74
2021/01/07 07:11:53;;;;;;;0.50;0.00;;;2.50;99.90;;;;;;5049417;28;20050;-74
2021/01/07 07:14:20;;;;;;;3.60;0.10;;;2.50;99.90;;;;;;5073810;28;20021;-74
2021/01/07 07:16:48;;;;;;;2.67;0.10;;;2.40;99.90;;;;;;5055983;28;20111;-74
2021/01/07 07:19:24;;;;;;;2.08;0.00;;;2.40;99.90;;;;;;5073941;28;20142;-73
2021/01/07 07:22:09;;;;;;;1.73;0.30;;;2.30;99.90;;;;;;5044701;28;20021;-74
2021/01/07 07:24:45;;;;;;;0.68;0.10;;;2.20;99.90;;;;;;5053866;28;20106;-73
2021/01/07 07:27:12;;;;;;;2.53;0.17;;;2.20;99.90;;;;;;5054009;28;20151;-73
2021/01/07 07:29:47;;;;;;;3.10;0.10;;;2.20;99.90;;;;;;5053815;28;20036;-73
2021/01/07 07:32:25;;;;;;;0.75;0.20;;;2.20;99.90;;;;;;5035901;28;20025;-74
2021/01/07 07:34:52;;;;;;;2.50;0.10;;;2.20;99.90;;;;;;5035948;28;20127;-72
2021/01/07 07:37:23;;;;;;;1.58;0.00;;;2.20;99.90;;;;;;5035750;28;20388;-73
2021/01/07 07:39:49;;;;;;;1.40;0.20;;;2.20;99.90;;;;;;5053799;28;20045;-74
2021/01/07 07:42:16;;;;;;;1.10;0.20;;;2.20;99.90;;;;;;5035853;28;20029;-73
2021/01/07 07:44:42;;;;;;;1.95;0.28;;;2.10;99.90;;;;;;5053336;28;20481;-72
2021/01/07 07:47:07;;;;;;;0.95;0.10;;;2.20;99.90;;;;;;5053613;28;20169;-73
2021/01/07 07:49:33;;;;;;;0.38;0.10;;;2.10;99.90;;;;;;5035668;28;20025;-73
2021/01/07 07:51:58;;;;;;;6.10;0.40;;;2.10;99.90;;;;;;5035880;28;20116;-73
2021/01/07 07:54:24;;;;;;;0.82;0.30;;;2.10;99.90;;;;;;5053474;28;20473;-73
2021/01/07 07:56:58;;;;;;;1.92;0.32;;;2.10;99.90;;;;;;5053629;28;20469;-73
2021/01/07 07:59:23;;;;;;;1.60;0.30;;;2.10;99.90;;;;;;5053545;28;20028;-73
2021/01/07 08:01:49;;;;;;;1.98;0.13;;;2.20;99.90;;;;;;5053656;28;20036;-73
2021/01/07 08:04:19;;;;;;;1.27;0.28;;;2.20;99.90;;;;;;5053739;28;20032;-74
2021/01/07 08:06:46;;;;;;;0.50;0.20;;;2.20;99.90;;;;;;5035348;28;20420;-71
2021/01/07 08:09:15;;;;;;;1.05;0.00;;;2.20;99.90;;;;;;5053377;28;20040;-71
2021/01/07 08:12:01;;;;;;;4.50;0.10;;;2.30;99.90;;;;;;5053316;28;20021;-72
2021/01/07 08:14:28;;;;;;;1.05;0.30;;;2.30;99.90;;;;;;5055114;28;20040;-71
2021/01/07 08:17:01;;;;;;;1.95;0.20;;;2.30;99.90;;;;;;5057192;28;20512;-71
2021/01/07 08:19:35;;;;;;;3.00;0.20;;;2.30;99.90;;;;;;5057048;28;20017;-71
2021/01/07 08:22:02;;;;;;;3.95;0.30;;;2.30;99.90;;;;;;5057155;28;20024;-72
2021/01/07 08:24:27;;;;;;;1.08;0.20;;;2.30;99.90;;;;;;5057713;28;20060;-71
2021/01/07 08:27:12;;;;;;;1.42;0.38;;;2.30;99.90;;;;;;5038654;28;20059;-72
2021/01/07 08:29:39;;;;;;;0.80;0.20;;;2.40;99.90;;;;;;5056985;28;20009;-71
2021/01/07 08:32:06;;;;;;;2.53;0.45;;;2.40;99.90;;;;;;5038707;28;20056;-72
2021/01/07 08:34:33;;;;;;;2.25;0.50;;;2.40;99.90;;;;;;5057051;28;20080;-74
2021/01/07 08:37:17;;;;;;;1.05;0.30;;;2.50;99.90;;;;;;5056461;28;20032;-72
2021/01/07 08:39:43;;;;;;;1.25;0.20;;;2.50;99.90;;;;;;5057306;28;20048;-72
2021/01/07 08:42:10;;;;;;;2.67;0.22;;;2.60;99.90;;;;;;5056539;28;20109;-74
2021/01/07 08:44:37;;;;;;;1.30;0.22;;;2.60;99.90;;;;;;5056761;28;20087;-74
2021/01/07 08:47:03;;;;;;;5.05;0.20;;;2.70;99.90;;;;;;5056065;28;20021;-74
2021/01/07 08:49:29;;;;;;;3.17;1.00;;;2.80;99.90;;;;;;5056460;28;20025;-73
2021/01/07 08:51:59;;;;;;;2.95;0.35;;;2.80;99.90;;;;;;5056248;28;20021;-73
2021/01/07 08:54:25;;;;;;;1.08;0.10;;;2.90;99.90;;;;;;5056607;28;20025;-73
2021/01/07 08:56:52;;;;;;;2.72;0.80;;;2.90;99.90;;;;;;5056367;28;20077;-73
2021/01/07 08:59:22;;;;;;;2.35;0.35;;;3.00;99.90;;;;;;5056264;28;20017;-72
2021/01/07 09:01:49;;;;;;;1.23;0.20;;;3.00;99.90;;;;;;5056191;28;20047;-73
2021/01/07 09:04:34;;;;;;;1.50;0.22;;;3.10;99.90;;;;;;5056306;28;20025;-72
2021/01/07 09:07:02;;;;;;;2.08;0.20;;;3.20;99.90;;;;;;5056404;28;20098;-72
2021/01/07 09:09:38;;;;;;;0.90;0.25;;;3.30;99.90;;;;;;5056240;28;20029;-73
2021/01/07 09:12:24;;;;;;;2.35;0.20;;;3.30;99.90;;;;;;5038389;28;20440;-73
2021/01/07 09:14:56;;;;;;;0.47;0.08;;;3.30;99.90;;;;;;5038080;28;20017;-73
2021/01/07 09:17:24;;;;;;;1.23;0.35;;;3.30;99.90;;;;;;5038208;28;20025;-73
2021/01/07 09:19:51;;;;;;;3.67;0.10;;;3.40;99.90;;;;;;5037873;28;20029;-73
2021/01/07 09:22:24;;;;;;;0.75;0.10;;;3.40;99.90;;;;;;5055804;28;20538;-73
2021/01/07 09:24:51;;;;;;;1.50;0.00;;;3.30;99.90;;;;;;5055539;28;20025;-73
2021/01/07 09:27:19;;;;;;;4.75;0.40;;;3.30;99.90;;;;;;5054973;28;20017;-73
2021/01/07 09:29:45;;;;;;;0.10;0.00;;;3.30;99.90;;;;;;5055760;28;20024;-73
2021/01/07 09:32:11;;;;;;;1.42;0.10;;;3.40;99.90;;;;;;5037804;28;20078;-73
2021/01/07 09:34:38;;;;;;;1.13;0.10;;;3.30;99.90;;;;;;5055596;28;20056;-74
2021/01/07 09:37:15;;;;;;;0.85;0.00;;;3.30;99.90;;;;;;5056165;28;20086;-74
2021/01/07 09:39:42;;;;;;;0.45;0.00;;;3.30;99.90;;;;;;5038144;28;20033;-74
2021/01/07 09:42:08;;;;;;;1.75;0.00;;;3.30;99.90;;;;;;5055821;28;20079;-74
2021/01/07 09:44:34;;;;;;;0.22;0.13;;;3.40;99.90;;;;;;5055513;28;20428;-73
2021/01/07 09:47:00;;;;;;;3.00;0.43;;;3.40;99.90;;;;;;5055510;28;20025;-73
2021/01/07 09:49:26;;;;;;;0.20;0.10;;;3.30;99.90;;;;;;5037461;28;20021;-73
2021/01/07 09:51:53;;;;;;;0.30;0.10;;;3.40;99.90;;;;;;5055200;28;20094;-73
2021/01/07 09:54:20;;;;;;;1.90;0.00;;;3.40;99.90;;;;;;5037451;28;20046;-73
2021/01/07 09:56:55;;;;;;;0.35;0.00;;;3.40;99.90;;;;;;5055278;28;20021;-73
2021/01/07 09:59:25;;;;;;;0.68;0.00;;;3.40;99.90;;;;;;5055214;28;20473;-72
2021/01/07 10:01:56;;;;;;;0.30;0.00;;;3.40;99.90;;;;;;5055792;28;20017;-73
2021/01/07 10:04:22;;;;;;;1.27;0.20;;;3.40;99.90;;;;;;5055527;28;20055;-73
2021/01/07 10:06:49;;;;;;;0.40;0.00;;;3.40;99.90;;;;;;5036737;28;20504;-72
2021/01/07 10:09:21;;;;;;;0.10;0.00;;;3.40;99.90;;;;;;5054985;28;20021;-72
2021/01/07 10:11:49;;;;;;;0.82;0.00;;;3.40;99.90;;;;;;5037495;28;20060;-73
2021/01/07 10:14:19;;;;;;;1.60;0.25;;;3.40;99.90;;;;;;5055015;28;20023;-74
2021/01/07 10:16:57;;;;;;;0.50;0.00;;;3.40;99.90;;;;;;5036964;28;20098;-75
2021/01/07 10:19:25;;;;;;;0.25;0.00;;;3.40;99.90;;;;;;5055244;28;20056;-74
2021/01/07 10:22:04;;;;;;;0.30;0.00;;;3.40;99.90;;;;;;5038355;28;20119;-74
2021/01/07 10:24:32;;;;;;;0.10;0.00;;;3.30;99.90;;;;;;5054872;28;20017;-74
2021/01/07 10:27:03;;;;;;;0.50;0.00;;;3.30;99.90;;;;;;5037037;28;20120;-74
2021/01/07 10:29:34;;;;;;;0.00;0.00;;;3.30;99.90;;;;;;5036971;28;20017;-74
2021/01/07 10:32:14;;;;;;;1.85;0.00;;;3.30;99.90;;;;;;5054652;28;20036;-74
2021/01/07 10:34:44;;;;;;;1.08;0.00;;;3.70;99.90;;;;;;5055198;28;20021;-74
2021/01/07 10:37:12;;;;;;;0.30;0.00;;;3.40;99.90;;;;;;5053624;28;20040;-74
2021/01/07 10:39:40;;;;;;;1.23;0.00;;;3.60;99.90;;;;;;5053978;28;20048;-74
2021/01/07 10:42:11;;;;;;;2.08;0.00;;;3.60;99.90;;;;;;5054331;28;20025;-74
2021/01/07 10:44:38;;;;;;;0.95;0.08;;;3.70;99.90;;;;;;5054570;28;20056;-74
2021/01/07 10:47:06;;;;;;;4.57;0.10;;;3.80;99.90;;;;;;5054259;28;20024;-74
2021/01/07 10:49:33;;;;;;;1.63;0.10;;;3.90;99.90;;;;;;5054002;28;20028;-75
2021/01/07 10:52:12;;;;;;;1.65;0.00;;;3.90;99.90;;;;;;5054131;28;20389;-75
2021/01/07 10:54:59;;;;;;;1.08;0.00;;;4.00;99.90;;;;;;5053754;28;20023;-74
2021/01/07 10:57:42;;;;;;;4.00;0.40;;;4.10;99.90;;;;;;5054024;28;20119;-74
2021/01/07 11:00:14;;;;;;;1.55;0.00;;;4.20;99.90;;;;;;5036041;28;20424;-74
2021/01/07 11:02:59;;;;;;;3.67;0.00;;;4.30;99.90;;;;;;5053883;28;20389;-74
2021/01/07 11:05:33;;;;;;;0.75;0.15;;;4.30;99.90;;;;;;5054207;28;20481;-74
2021/01/07 11:08:15;;;;;;;4.57;0.00;;;4.40;99.90;;;;;;5053504;28;20025;-74
2021/01/07 11:10:50;;;;;;;2.40;0.03;;;4.40;99.90;;;;;;5035644;28;20059;-74
2021/01/07 11:13:20;;;;;;;5.75;0.03;;;4.40;99.90;;;;;;5053995;28;20104;-74
2021/01/07 11:15:46;;;;;;;2.28;0.10;;;4.40;99.90;;;;;;5053722;28;20101;-74
2021/01/07 11:18:14;;;;;;;2.08;0.65;;;4.50;99.90;;;;;;5053665;28;20025;-73
2021/01/07 11:20:43;;;;;;;2.50;0.13;;;4.50;99.90;;;;;;5036400;28;20473;-73
2021/01/07 11:23:09;;;;;;;;;;;4.60;99.90;;;;;;5054086;28;20021;-73
2021/01/07 11:25:36;;;;;;;1.45;0.10;;;4.50;99.90;;;;;;5053651;28;19916;-74
2021/01/07 11:28:02;;;;;;;5.93;0.20;;;4.60;99.90;;;;;;5053108;28;20025;-73
2021/01/07 11:30:28;;;;;;;0.77;0.13;;;4.60;99.90;;;;;;5035631;28;20020;-73
2021/01/07 11:32:54;;;;;;;0.77;0.22;;;4.60;99.90;;;;;;5053556;28;20390;-73
2021/01/07 11:35:20;;;;;;;7.38;1.55;;;4.60;99.90;;;;;;5053406;28;20504;-73
2021/01/07 11:38:04;;;;;;;2.20;0.17;;;4.70;99.90;;;;;;5053193;28;20033;-73
2021/01/07 11:41:09;;;;;;;2.92;0.43;;;4.80;99.90;;;;;;5053826;28;20029;-74
2021/01/07 11:44:16;;;;;;;3.97;0.20;;;4.80;99.90;;;;;;5053609;28;20052;-74
2021/01/07 11:46:48;;;;;;;10.80;1.83;;;4.90;99.90;;;;;;5053300;28;20048;-73
2021/01/07 11:49:18;;;;;;;3.15;0.00;;;5.10;99.90;;;;;;5054750;28;20047;-73
2021/01/07 11:51:49;;;;;;;2.42;0.13;;;5.20;99.90;;;;;;5057657;28;20088;-73
2021/01/07 11:54:16;;;;;;;1.45;0.40;;;5.30;99.90;;;;;;5057856;28;20021;-73
2021/01/07 11:56:43;;;;;;;1.70;0.30;;;5.30;99.90;;;;;;5057354;28;20499;-73
2021/01/07 11:59:09;;;;;;;0.25;0.00;;;5.30;99.90;;;;;;5057884;28;20115;-75
2021/01/07 12:01:37;;;;;;;0.82;0.10;;;5.40;99.90;;;;;;5039012;28;20083;-75
2021/01/07 12:04:13;;;;;;;3.35;0.40;;;5.40;99.90;;;;;;5039108;28;20070;-75
2021/01/07 12:07:16;;;;;;;2.97;0.20;;;5.50;99.90;;;;;;5039113;28;20074;-75
2021/01/07 12:09:43;;;;;;;2.30;0.22;;;5.50;99.90;;;;;;5044135;28;20033;-75
2021/01/07 12:12:15;;;;;;;2.33;0.10;;;5.40;99.90;;;;;;5056947;28;20017;-75
2021/01/07 12:14:50;;;;;;;2.72;0.20;;;5.30;99.90;;;;;;5039058;28;20040;-75
2021/01/07 12:17:16;;;;;;;5.63;0.30;;;5.20;99.90;;;;;;5038846;28;20021;-75
2021/01/07 12:19:43;;;;;;;4.88;0.00;;;5.10;99.90;;;;;;5056668;28;20052;-75
2021/01/07 12:22:14;;;;;;;3.03;0.40;;;5.00;99.90;;;;;;5057250;28;20025;-75
2021/01/07 12:28:02;;;;;;;2.22;0.00;;;4.80;99.90;;;;;;5056706;28;20104;-75
2021/01/07 12:30:31;;;;;;;1.92;0.10;;;4.70;99.90;;;;;;5038804;28;20041;-75
2021/01/07 12:33:26;;;;;;;5.20;0.85;;;4.70;99.90;;;;;;5057115;28;20024;-74
2021/01/07 12:36:23;;;;;;;7.50;0.10;;;4.70;99.90;;;;;;5039606;28;20377;-76
2021/01/07 12:38:58;;;;;;;3.95;0.20;;;4.80;99.90;;;;;;5056592;28;20503;-75
2021/01/07 12:41:30;;;;;;;5.00;0.17;;;4.80;99.90;;;;;;5056809;28;20079;-73
2021/01/07 12:43:57;;;;;;;2.90;0.00;;;4.80;99.90;;;;;;5056612;28;20021;-74
2021/01/07 12:46:29;;;;;;;4.10;0.30;;;4.80;99.90;;;;;;5038268;28;20512;-76
2021/01/07 12:48:57;;;;;;;4.63;0.55;;;4.80;99.90;;;;;;5056153;28;20067;-75
2021/01/07 12:51:23;;;;;;;3.00;0.05;;;4.80;99.90;;;;;;5056244;28;20025;-75
2021/01/07 12:53:48;;;;;;;2.50;0.00;;;4.80;99.90;;;;;;5055873;28;20013;-76
2021/01/07 12:56:25;;;;;;;2.70;0.10;;;4.80;99.90;;;;;;5037783;28;20082;-76
2021/01/07 12:58:54;;;;;;;7.05;0.13;;;4.70;99.90;;;;;;5055834;28;20071;-72
2021/01/07 13:01:37;;;;;;;4.60;0.00;;;4.70;99.90;;;;;;5056058;28;20433;-73
2021/01/07 13:04:17;;;;;;;3.30;0.10;;;4.60;99.90;;;;;;5055990;28;20025;-74
2021/01/07 13:06:53;;;;;;;2.05;0.20;;;4.50;99.90;;;;;;5037926;28;20041;-74
2021/01/07 13:09:21;;;;;;;5.55;0.70;;;4.50;99.90;;;;;;5056114;28;20021;-74
2021/01/07 13:11:49;;;;;;;3.00;0.00;;;4.40;99.90;;;;;;5038028;28;20017;-74